sensor_id;sensor_type;location;lat;lon;timestamp;temperature;humidity
7574;DHT22;3828;48.922;9.116;2023-03-16T00:01:59;0.30;99.90
7574;DHT22;3828;48.922;9.116;2023-03-16T00:06:53;0.10;99.90
7574;DHT22;3828;48.922;9.116;2023-03-16T00:09:20;0.10;99.90
7574;DHT22;3828;48.922;9.116;2023-03-16T00:16:41;0.10;99.90
7574;DHT22;3828;48.922;9.116;2023-03-16T00:19:09;0.10;99.90
7574;DHT22;3828;48.922;9.116;2023-03-16T00:21:35;0.10;99.90
7574;DHT22;3828;48.922;9.116;2023-03-16T00:24:02;0.10;99.90
7574;DHT22;3828;48.922;9.116;2023-03-16T00:26:30;0.10;99.90
7574;DHT22;3828;48.922;9.116;2023-03-16T00:28:57;0.10;99.90
7574;DHT22;3828;48.922;9.116;2023-03-16T00:31:24;0.10;99.90
7574;DHT22;3828;48.922;9.116;2023-03-16T00:33:50;0.10;99.90
7574;DHT22;3828;48.922;9.116;2023-03-16T00:36:19;0.10;99.90
7574;DHT22;3828;48.922;9.116;2023-03-16T00:41:14;0.00;99.90
7574;DHT22;3828;48.922;9.116;2023-03-16T00:43:42;0.00;99.90
7574;DHT22;3828;48.922;9.116;2023-03-16T00:46:11;0.00;99.90
7574;DHT22;3828;48.922;9.116;2023-03-16T00:48:39;0.00;99.90
7574;DHT22;3828;48.922;9.116;2023-03-16T00:51:08;-0.10;99.90
7574;DHT22;3828;48.922;9.116;2023-03-16T00:53:39;-0.10;99.90
7574;DHT22;3828;48.922;9.116;2023-03-16T00:56:08;-0.10;99.90
7574;DHT22;3828;48.922;9.116;2023-03-16T00:58:36;-0.10;99.90
7574;DHT22;3828;48.922;9.116;2023-03-16T01:01:03;-0.10;99.90
7574;DHT22;3828;48.922;9.116;2023-03-16T01:03:31;-0.10;99.90
7574;DHT22;3828;48.922;9.116;2023-03-16T01:06:03;-0.20;99.90
7574;DHT22;3828;48.922;9.116;2023-03-16T01:08:30;-0.20;99.90
7574;DHT22;3828;48.922;9.116;2023-03-16T01:11:03;-0.20;99.90
7574;DHT22;3828;48.922;9.116;2023-03-16T01:13:29;-0.20;99.90
7574;DHT22;3828;48.922;9.116;2023-03-16T01:15:56;-0.20;99.90
7574;DHT22;3828;48.922;9.116;2023-03-16T01:18:23;-0.30;99.90
7574;DHT22;3828;48.922;9.116;2023-03-16T01:20:50;-0.20;99.90
7574;DHT22;3828;48.922;9.116;2023-03-16T01:23:18;-0.20;99.90
7574;DHT22;3828;48.922;9.116;2023-03-16T01:28:19;-0.20;99.90
7574;DHT22;3828;48.922;9.116;2023-03-16T01:30:46;-0.20;99.90
7574;DHT22;3828;48.922;9.116;2023-03-16T01:33:13;-0.10;99.90
7574;DHT22;3828;48.922;9.116;2023-03-16T01:35:40;-0.10;99.90
7574;DHT22;3828;48.922;9.116;2023-03-16T01:38:07;-0.10;99.90
7574;DHT22;3828;48.922;9.116;2023-03-16T01:40:39;-0.10;99.90
7574;DHT22;3828;48.922;9.116;2023-03-16T01:43:06;-0.10;99.90
7574;DHT22;3828;48.922;9.116;2023-03-16T01:46:06;-0.20;99.90
7574;DHT22;3828;48.922;9.116;2023-03-16T01:48:37;-0.20;99.90
7574;DHT22;3828;48.922;9.116;2023-03-16T01:51:10;-0.20;99.90
7574;DHT22;3828;48.922;9.116;2023-03-16T01:53:40;-0.30;99.90
7574;DHT22;3828;48.922;9.116;2023-03-16T01:56:11;-0.30;99.90
7574;DHT22;3828;48.922;9.116;2023-03-16T01:58:41;-0.30;99.90
7574;DHT22;3828;48.922;9.116;2023-03-16T02:01:10;-0.30;99.90
7574;DHT22;3828;48.922;9.116;2023-03-16T02:03:39;-0.30;99.90
7574;DHT22;3828;48.922;9.116;2023-03-16T02:06:09;-0.30;99.90
7574;DHT22;3828;48.922;9.116;2023-03-16T02:08:39;-0.30;99.90
7574;DHT22;3828;48.922;9.116;2023-03-16T02:11:08;-0.30;99.90
7574;DHT22;3828;48.922;9.116;2023-03-16T02:13:35;-0.30;99.90
7574;DHT22;3828;48.922;9.116;2023-03-16T02:16:02;-0.30;99.90
7574;DHT22;3828;48.922;9.116;2023-03-16T02:18:32;-0.30;99.90
7574;DHT22;3828;48.922;9.116;2023-03-16T02:21:04;-0.40;99.90
7574;DHT22;3828;48.922;9.116;2023-03-16T02:23:32;-0.40;99.90
7574;DHT22;3828;48.922;9.116;2023-03-16T02:26:05;-0.40;99.90
7574;DHT22;3828;48.922;9.116;2023-03-16T02:28:38;-0.40;99.90
7574;DHT22;3828;48.922;9.116;2023-03-16T02:31:14;-0.40;99.90
7574;DHT22;3828;48.922;9.116;2023-03-16T02:33:43;-0.40;99.90
7574;DHT22;3828;48.922;9.116;2023-03-16T02:36:12;-0.40;99.90
7574;DHT22;3828;48.922;9.116;2023-03-16T02:38:39;-0.40;99.90
7574;DHT22;3828;48.922;9.116;2023-03-16T02:41:11;-0.50;99.90
7574;DHT22;3828;48.922;9.116;2023-03-16T02:43:40;-3.70;99.90
7574;DHT22;3828;48.922;9.116;2023-03-16T02:46:09;-0.50;99.90
7574;DHT22;3828;48.922;9.116;2023-03-16T02:48:42;-0.50;99.90
7574;DHT22;3828;48.922;9.116;2023-03-16T02:51:10;-0.50;99.90
7574;DHT22;3828;48.922;9.116;2023-03-16T02:53:37;-0.50;99.90
7574;DHT22;3828;48.922;9.116;2023-03-16T02:56:04;-0.60;99.90
7574;DHT22;3828;48.922;9.116;2023-03-16T03:03:25;-0.50;99.90
7574;DHT22;3828;48.922;9.116;2023-03-16T03:05:54;-0.50;99.90
7574;DHT22;3828;48.922;9.116;2023-03-16T03:08:20;-0.50;99.90
7574;DHT22;3828;48.922;9.116;2023-03-16T03:13:15;-0.60;99.90
7574;DHT22;3828;48.922;9.116;2023-03-16T03:15:41;-0.50;99.90
7574;DHT22;3828;48.922;9.116;2023-03-16T03:20:35;-0.60;99.90
7574;DHT22;3828;48.922;9.116;2023-03-16T03:23:03;0.20;99.90
7574;DHT22;3828;48.922;9.116;2023-03-16T03:27:59;-0.60;99.90
7574;DHT22;3828;48.922;9.116;2023-03-16T03:32:53;-0.70;99.90
7574;DHT22;3828;48.922;9.116;2023-03-16T03:35:21;-0.70;99.90
7574;DHT22;3828;48.922;9.116;2023-03-16T03:40:17;-0.70;99.90
7574;DHT22;3828;48.922;9.116;2023-03-16T03:42:44;-0.60;99.90
7574;DHT22;3828;48.922;9.116;2023-03-16T03:45:12;-0.70;99.90
7574;DHT22;3828;48.922;9.116;2023-03-16T03:47:39;-0.60;99.90
7574;DHT22;3828;48.922;9.116;2023-03-16T03:50:07;-0.60;99.90
7574;DHT22;3828;48.922;9.116;2023-03-16T03:52:34;-0.50;99.90
7574;DHT22;3828;48.922;9.116;2023-03-16T03:55:01;-0.50;99.90
7574;DHT22;3828;48.922;9.116;2023-03-16T03:57:29;-0.50;99.90
7574;DHT22;3828;48.922;9.116;2023-03-16T03:59:56;-0.60;99.90
7574;DHT22;3828;48.922;9.116;2023-03-16T04:04:50;-0.50;99.90
7574;DHT22;3828;48.922;9.116;2023-03-16T04:07:17;-0.60;99.90
7574;DHT22;3828;48.922;9.116;2023-03-16T04:09:43;-0.60;99.90
7574;DHT22;3828;48.922;9.116;2023-03-16T04:12:10;-0.50;99.90
7574;DHT22;3828;48.922;9.116;2023-03-16T04:14:39;-0.60;99.90
7574;DHT22;3828;48.922;9.116;2023-03-16T04:17:05;-0.60;99.90
7574;DHT22;3828;48.922;9.116;2023-03-16T04:19:32;-0.60;99.90
7574;DHT22;3828;48.922;9.116;2023-03-16T04:21:59;-0.60;99.90
7574;DHT22;3828;48.922;9.116;2023-03-16T04:24:26;-0.60;99.90
7574;DHT22;3828;48.922;9.116;2023-03-16T04:29:20;-0.50;99.90
7574;DHT22;3828;48.922;9.116;2023-03-16T04:31:48;-0.50;99.90
7574;DHT22;3828;48.922;9.116;2023-03-16T04:34:33;-0.50;99.90
7574;DHT22;3828;48.922;9.116;2023-03-16T04:39:27;-0.50;99.90
7574;DHT22;3828;48.922;9.116;2023-03-16T04:41:54;-0.50;99.90
7574;DHT22;3828;48.922;9.116;2023-03-16T04:44:21;-0.50;99.90
7574;DHT22;3828;48.922;9.116;2023-03-16T04:46:51;-0.50;99.90
7574;DHT22;3828;48.922;9.116;2023-03-16T04:49:18;-0.50;99.90
7574;DHT22;3828;48.922;9.116;2023-03-16T04:51:45;-0.50;99.90
7574;DHT22;3828;48.922;9.116;2023-03-16T04:54:11;-0.50;99.90
7574;DHT22;3828;48.922;9.116;2023-03-16T04:56:38;-0.60;99.90
7574;DHT22;3828;48.922;9.116;2023-03-16T04:59:05;-0.50;99.90
7574;DHT22;3828;48.922;9.116;2023-03-16T05:01:32;-0.60;99.90
7574;DHT22;3828;48.922;9.116;2023-03-16T05:04:00;-0.60;99.90
7574;DHT22;3828;48.922;9.116;2023-03-16T05:06:28;-0.60;99.90
7574;DHT22;3828;48.922;9.116;2023-03-16T05:08:58;-0.60;99.90
7574;DHT22;3828;48.922;9.116;2023-03-16T05:11:24;-0.60;99.90
7574;DHT22;3828;48.922;9.116;2023-03-16T05:13:51;-0.70;99.90
7574;DHT22;3828;48.922;9.116;2023-03-16T05:16:18;-0.70;99.90
7574;DHT22;3828;48.922;9.116;2023-03-16T05:18:45;-0.70;99.90
7574;DHT22;3828;48.922;9.116;2023-03-16T05:21:13;-0.70;99.90
7574;DHT22;3828;48.922;9.116;2023-03-16T05:23:41;-0.70;99.90
7574;DHT22;3828;48.922;9.116;2023-03-16T05:26:09;-0.70;99.90
7574;DHT22;3828;48.922;9.116;2023-03-16T05:28:37;-0.70;99.90
7574;DHT22;3828;48.922;9.116;2023-03-16T05:31:04;-0.70;99.90
7574;DHT22;3828;48.922;9.116;2023-03-16T05:35:58;-0.70;99.90
7574;DHT22;3828;48.922;9.116;2023-03-16T05:38:27;-0.70;99.90
7574;DHT22;3828;48.922;9.116;2023-03-16T05:40:56;-0.70;99.90
7574;DHT22;3828;48.922;9.116;2023-03-16T05:43:26;-0.70;99.90
7574;DHT22;3828;48.922;9.116;2023-03-16T05:45:53;-0.70;99.90
7574;DHT22;3828;48.922;9.116;2023-03-16T05:48:20;-0.70;99.90
7574;DHT22;3828;48.922;9.116;2023-03-16T05:50:50;-0.60;99.90
7574;DHT22;3828;48.922;9.116;2023-03-16T05:53:17;-0.60;99.90
7574;DHT22;3828;48.922;9.116;2023-03-16T05:55:50;-0.50;99.90
7574;DHT22;3828;48.922;9.116;2023-03-16T05:58:17;-0.50;99.90
7574;DHT22;3828;48.922;9.116;2023-03-16T06:03:11;-0.50;99.90
7574;DHT22;3828;48.922;9.116;2023-03-16T06:05:38;-0.40;99.90
7574;DHT22;3828;48.922;9.116;2023-03-16T06:08:06;-0.40;99.90
7574;DHT22;3828;48.922;9.116;2023-03-16T06:10:33;-0.30;99.90
7574;DHT22;3828;48.922;9.116;2023-03-16T06:13:01;-0.30;99.90
7574;DHT22;3828;48.922;9.116;2023-03-16T06:15:37;-0.20;99.90
7574;DHT22;3828;48.922;9.116;2023-03-16T06:18:04;-0.10;99.90
7574;DHT22;3828;48.922;9.116;2023-03-16T06:20:30;0.00;99.90
7574;DHT22;3828;48.922;9.116;2023-03-16T06:22:57;0.10;99.90
7574;DHT22;3828;48.922;9.116;2023-03-16T06:25:26;0.10;99.90
7574;DHT22;3828;48.922;9.116;2023-03-16T06:30:21;0.30;99.90
7574;DHT22;3828;48.922;9.116;2023-03-16T06:32:48;0.50;99.90
7574;DHT22;3828;48.922;9.116;2023-03-16T06:35:17;0.60;99.90
7574;DHT22;3828;48.922;9.116;2023-03-16T06:37:44;0.70;99.90
7574;DHT22;3828;48.922;9.116;2023-03-16T06:40:11;0.80;99.90
7574;DHT22;3828;48.922;9.116;2023-03-16T06:45:07;1.10;99.90
7574;DHT22;3828;48.922;9.116;2023-03-16T06:47:35;1.20;99.90
7574;DHT22;3828;48.922;9.116;2023-03-16T06:50:03;1.30;99.90
7574;DHT22;3828;48.922;9.116;2023-03-16T06:52:30;1.50;99.90
7574;DHT22;3828;48.922;9.116;2023-03-16T06:57:24;1.90;99.90
7574;DHT22;3828;48.922;9.116;2023-03-16T06:59:50;2.00;99.90
7574;DHT22;3828;48.922;9.116;2023-03-16T07:04:48;2.40;99.90
7574;DHT22;3828;48.922;9.116;2023-03-16T07:07:15;2.50;99.90
7574;DHT22;3828;48.922;9.116;2023-03-16T07:12:10;2.90;99.90
7574;DHT22;3828;48.922;9.116;2023-03-16T07:14:38;3.20;99.90
7574;DHT22;3828;48.922;9.116;2023-03-16T07:17:05;3.40;99.90
7574;DHT22;3828;48.922;9.116;2023-03-16T07:22:00;3.80;99.90
7574;DHT22;3828;48.922;9.116;2023-03-16T07:31:49;4.30;99.90
7574;DHT22;3828;48.922;9.116;2023-03-16T07:34:18;4.50;99.90
7574;DHT22;3828;48.922;9.116;2023-03-16T07:39:14;4.70;99.90
7574;DHT22;3828;48.922;9.116;2023-03-16T07:44:09;4.70;99.90
7574;DHT22;3828;48.922;9.116;2023-03-16T07:49:04;4.90;99.90
7574;DHT22;3828;48.922;9.116;2023-03-16T07:56:26;5.40;99.90
7574;DHT22;3828;48.922;9.116;2023-03-16T08:01:20;5.70;99.90
7574;DHT22;3828;48.922;9.116;2023-03-16T08:03:47;5.70;99.90
7574;DHT22;3828;48.922;9.116;2023-03-16T08:13:36;6.80;99.90
7574;DHT22;3828;48.922;9.116;2023-03-16T08:16:04;7.20;99.90
7574;DHT22;3828;48.922;9.116;2023-03-16T08:28:25;9.20;99.90
7574;DHT22;3828;48.922;9.116;2023-03-16T08:30:53;9.70;99.90
7574;DHT22;3828;48.922;9.116;2023-03-16T08:35:50;10.20;99.90
7574;DHT22;3828;48.922;9.116;2023-03-16T08:40:45;11.00;99.90
7574;DHT22;3828;48.922;9.116;2023-03-16T08:43:13;11.30;99.90
7574;DHT22;3828;48.922;9.116;2023-03-16T08:48:08;11.30;99.90
7574;DHT22;3828;48.922;9.116;2023-03-16T08:50:38;11.00;99.90
7574;DHT22;3828;48.922;9.116;2023-03-16T08:55:32;11.20;99.90
7574;DHT22;3828;48.922;9.116;2023-03-16T09:02:54;11.10;99.90
7574;DHT22;3828;48.922;9.116;2023-03-16T09:05:23;10.90;99.90
7574;DHT22;3828;48.922;9.116;2023-03-16T09:07:50;11.20;99.90
7574;DHT22;3828;48.922;9.116;2023-03-16T09:10:18;11.20;99.90
7574;DHT22;3828;48.922;9.116;2023-03-16T09:12:48;11.50;99.90
7574;DHT22;3828;48.922;9.116;2023-03-16T09:20:11;12.00;99.90
7574;DHT22;3828;48.922;9.116;2023-03-16T09:22:39;11.50;99.90
7574;DHT22;3828;48.922;9.116;2023-03-16T09:25:07;11.20;99.90
7574;DHT22;3828;48.922;9.116;2023-03-16T09:27:34;10.60;99.90
7574;DHT22;3828;48.922;9.116;2023-03-16T09:30:01;10.60;99.90
7574;DHT22;3828;48.922;9.116;2023-03-16T09:32:29;10.70;99.90
7574;DHT22;3828;48.922;9.116;2023-03-16T09:37:25;10.80;99.90
7574;DHT22;3828;48.922;9.116;2023-03-16T09:39:53;11.00;99.90
7574;DHT22;3828;48.922;9.116;2023-03-16T09:42:26;11.40;99.90
7574;DHT22;3828;48.922;9.116;2023-03-16T09:45:06;11.80;99.90
7574;DHT22;3828;48.922;9.116;2023-03-16T09:47:35;12.10;99.90
7574;DHT22;3828;48.922;9.116;2023-03-16T09:50:05;12.70;99.90
7574;DHT22;3828;48.922;9.116;2023-03-16T09:52:38;13.10;99.90
7574;DHT22;3828;48.922;9.116;2023-03-16T09:55:18;13.30;99.90
7574;DHT22;3828;48.922;9.116;2023-03-16T09:57:50;14.00;99.90
7574;DHT22;3828;48.922;9.116;2023-03-16T10:00:20;13.90;99.90
7574;DHT22;3828;48.922;9.116;2023-03-16T10:02:57;14.10;99.90
7574;DHT22;3828;48.922;9.116;2023-03-16T10:05:28;14.10;99.90
7574;DHT22;3828;48.922;9.116;2023-03-16T10:08:06;14.30;99.90
7574;DHT22;3828;48.922;9.116;2023-03-16T10:10:51;13.90;99.90
7574;DHT22;3828;48.922;9.116;2023-03-16T10:13:28;14.20;99.90
7574;DHT22;3828;48.922;9.116;2023-03-16T10:15:57;14.30;99.90
7574;DHT22;3828;48.922;9.116;2023-03-16T10:18:28;14.00;99.90
7574;DHT22;3828;48.922;9.116;2023-03-16T10:20:57;14.20;99.90
7574;DHT22;3828;48.922;9.116;2023-03-16T10:23:25;14.10;99.90
7574;DHT22;3828;48.922;9.116;2023-03-16T10:25:54;13.80;99.90
7574;DHT22;3828;48.922;9.116;2023-03-16T10:28:23;13.50;99.90
7574;DHT22;3828;48.922;9.116;2023-03-16T10:30:52;13.70;99.90
7574;DHT22;3828;48.922;9.116;2023-03-16T10:33:22;14.30;99.90
7574;DHT22;3828;48.922;9.116;2023-03-16T10:35:53;16.50;99.90
7574;DHT22;3828;48.922;9.116;2023-03-16T10:38:30;15.20;99.90
7574;DHT22;3828;48.922;9.116;2023-03-16T10:41:05;15.90;99.90
7574;DHT22;3828;48.922;9.116;2023-03-16T10:43:33;16.00;99.90
7574;DHT22;3828;48.922;9.116;2023-03-16T10:48:30;16.30;99.90
7574;DHT22;3828;48.922;9.116;2023-03-16T10:51:02;16.10;99.90
7574;DHT22;3828;48.922;9.116;2023-03-16T10:53:34;16.10;99.90
7574;DHT22;3828;48.922;9.116;2023-03-16T10:56:10;16.50;99.90
7574;DHT22;3828;48.922;9.116;2023-03-16T10:58:39;16.70;99.90
7574;DHT22;3828;48.922;9.116;2023-03-16T11:01:09;17.10;99.90
7574;DHT22;3828;48.922;9.116;2023-03-16T11:03:39;17.30;99.90
7574;DHT22;3828;48.922;9.116;2023-03-16T11:06:15;17.90;99.90
7574;DHT22;3828;48.922;9.116;2023-03-16T11:11:16;19.00;99.90
7574;DHT22;3828;48.922;9.116;2023-03-16T11:13:45;18.50;99.90
7574;DHT22;3828;48.922;9.116;2023-03-16T11:16:22;18.50;99.90
7574;DHT22;3828;48.922;9.116;2023-03-16T11:18:54;18.40;99.90
7574;DHT22;3828;48.922;9.116;2023-03-16T11:21:28;21.30;99.90
7574;DHT22;3828;48.922;9.116;2023-03-16T11:23:57;19.10;99.90
7574;DHT22;3828;48.922;9.116;2023-03-16T11:26:31;19.20;99.90
7574;DHT22;3828;48.922;9.116;2023-03-16T11:29:01;19.60;99.80
7574;DHT22;3828;48.922;9.116;2023-03-16T11:31:39;20.00;97.90
7574;DHT22;3828;48.922;9.116;2023-03-16T11:34:12;19.20;97.10
7574;DHT22;3828;48.922;9.116;2023-03-16T11:36:48;18.50;97.50
7574;DHT22;3828;48.922;9.116;2023-03-16T11:39:26;18.80;98.10
7574;DHT22;3828;48.922;9.116;2023-03-16T11:42:08;18.40;99.10
7574;DHT22;3828;48.922;9.116;2023-03-16T11:44:42;19.00;96.50
7574;DHT22;3828;48.922;9.116;2023-03-16T11:47:27;19.60;97.60
7574;DHT22;3828;48.922;9.116;2023-03-16T11:50:02;18.90;97.10
7574;DHT22;3828;48.922;9.116;2023-03-16T11:52:39;18.80;99.60
7574;DHT22;3828;48.922;9.116;2023-03-16T11:55:21;18.70;98.90
7574;DHT22;3828;48.922;9.116;2023-03-16T11:58:00;18.60;99.60
7574;DHT22;3828;48.922;9.116;2023-03-16T12:00:39;18.90;98.30
7574;DHT22;3828;48.922;9.116;2023-03-16T12:06:18;18.70;97.40
7574;DHT22;3828;48.922;9.116;2023-03-16T12:09:10;19.00;98.30
7574;DHT22;3828;48.922;9.116;2023-03-16T12:11:49;19.10;96.60
7574;DHT22;3828;48.922;9.116;2023-03-16T12:14:23;19.90;95.40
7574;DHT22;3828;48.922;9.116;2023-03-16T12:16:54;19.20;94.60
7574;DHT22;3828;48.922;9.116;2023-03-16T12:19:26;19.20;95.30
7574;DHT22;3828;48.922;9.116;2023-03-16T12:22:02;19.20;96.10
7574;DHT22;3828;48.922;9.116;2023-03-16T12:24:37;19.10;94.90
7574;DHT22;3828;48.922;9.116;2023-03-16T12:27:07;19.60;96.20
7574;DHT22;3828;48.922;9.116;2023-03-16T12:29:42;19.40;94.10
7574;DHT22;3828;48.922;9.116;2023-03-16T12:32:14;19.00;95.40
7574;DHT22;3828;48.922;9.116;2023-03-16T12:34:46;18.90;97.20
7574;DHT22;3828;48.922;9.116;2023-03-16T12:37:21;18.40;96.80
7574;DHT22;3828;48.922;9.116;2023-03-16T12:40:08;18.40;96.60
7574;DHT22;3828;48.922;9.116;2023-03-16T12:42:56;18.10;96.10
7574;DHT22;3828;48.922;9.116;2023-03-16T12:45:34;18.30;96.10
7574;DHT22;3828;48.922;9.116;2023-03-16T12:48:12;17.70;95.70
7574;DHT22;3828;48.922;9.116;2023-03-16T12:50:48;17.20;94.80
7574;DHT22;3828;48.922;9.116;2023-03-16T12:53:40;17.30;97.50
7574;DHT22;3828;48.922;9.116;2023-03-16T12:56:10;16.50;97.70
7574;DHT22;3828;48.922;9.116;2023-03-16T12:58:41;16.90;98.70
7574;DHT22;3828;48.922;9.116;2023-03-16T13:01:12;17.90;97.90
7574;DHT22;3828;48.922;9.116;2023-03-16T13:03:41;18.90;96.50
7574;DHT22;3828;48.922;9.116;2023-03-16T13:06:17;19.50;95.30
7574;DHT22;3828;48.922;9.116;2023-03-16T13:08:49;19.90;94.50
7574;DHT22;3828;48.922;9.116;2023-03-16T13:13:49;20.60;94.20
7574;DHT22;3828;48.922;9.116;2023-03-16T13:16:26;21.00;94.30
7574;DHT22;3828;48.922;9.116;2023-03-16T13:21:32;21.70;93.00
7574;DHT22;3828;48.922;9.116;2023-03-16T13:24:12;20.50;90.60
7574;DHT22;3828;48.922;9.116;2023-03-16T13:26:41;19.50;90.20
7574;DHT22;3828;48.922;9.116;2023-03-16T13:29:23;18.50;91.00
7574;DHT22;3828;48.922;9.116;2023-03-16T13:31:52;18.10;92.30
7574;DHT22;3828;48.922;9.116;2023-03-16T13:34:22;17.70;92.90
7574;DHT22;3828;48.922;9.116;2023-03-16T13:36:53;17.10;93.30
7574;DHT22;3828;48.922;9.116;2023-03-16T13:39:22;16.50;93.90
7574;DHT22;3828;48.922;9.116;2023-03-16T13:42:00;16.90;94.70
7574;DHT22;3828;48.922;9.116;2023-03-16T13:44:29;16.50;94.30
7574;DHT22;3828;48.922;9.116;2023-03-16T13:47:02;16.00;95.00
7574;DHT22;3828;48.922;9.116;2023-03-16T13:54:24;15.90;95.10
7574;DHT22;3828;48.922;9.116;2023-03-16T13:56:54;16.60;96.60
7574;DHT22;3828;48.922;9.116;2023-03-16T14:01:54;18.10;94.20
7574;DHT22;3828;48.922;9.116;2023-03-16T14:04:24;18.50;93.10
7574;DHT22;3828;48.922;9.116;2023-03-16T14:06:55;18.80;92.80
7574;DHT22;3828;48.922;9.116;2023-03-16T14:09:24;19.40;92.50
7574;DHT22;3828;48.922;9.116;2023-03-16T14:14:24;19.70;91.50
7574;DHT22;3828;48.922;9.116;2023-03-16T14:19:23;19.70;91.30
7574;DHT22;3828;48.922;9.116;2023-03-16T14:24:28;19.80;91.20
7574;DHT22;3828;48.922;9.116;2023-03-16T14:26:56;19.70;91.30
7574;DHT22;3828;48.922;9.116;2023-03-16T14:29:26;19.10;91.10
7574;DHT22;3828;48.922;9.116;2023-03-16T14:34:28;18.80;92.40
7574;DHT22;3828;48.922;9.116;2023-03-16T14:37:06;18.40;92.20
7574;DHT22;3828;48.922;9.116;2023-03-16T14:42:02;18.10;91.20
7574;DHT22;3828;48.922;9.116;2023-03-16T14:44:31;18.20;92.10
7574;DHT22;3828;48.922;9.116;2023-03-16T14:49:29;17.50;92.30
7574;DHT22;3828;48.922;9.116;2023-03-16T14:51:58;17.10;92.40
7574;DHT22;3828;48.922;9.116;2023-03-16T14:54:27;16.50;92.60
7574;DHT22;3828;48.922;9.116;2023-03-16T14:56:58;16.50;93.10
7574;DHT22;3828;48.922;9.116;2023-03-16T15:01:53;16.30;93.20
7574;DHT22;3828;48.922;9.116;2023-03-16T15:04:24;16.10;93.30
7574;DHT22;3828;48.922;9.116;2023-03-16T15:06:53;16.30;94.10
7574;DHT22;3828;48.922;9.116;2023-03-16T15:09:35;16.30;95.00
7574;DHT22;3828;48.922;9.116;2023-03-16T15:12:07;16.10;94.10
7574;DHT22;3828;48.922;9.116;2023-03-16T15:22:21;15.30;95.30
7574;DHT22;3828;48.922;9.116;2023-03-16T15:27:19;14.80;95.80
7574;DHT22;3828;48.922;9.116;2023-03-16T15:32:13;14.30;96.70
7574;DHT22;3828;48.922;9.116;2023-03-16T15:34:41;14.20;97.00
7574;DHT22;3828;48.922;9.116;2023-03-16T15:37:11;14.00;97.20
7574;DHT22;3828;48.922;9.116;2023-03-16T15:39:40;14.20;97.40
7574;DHT22;3828;48.922;9.116;2023-03-16T15:42:12;14.20;97.90
7574;DHT22;3828;48.922;9.116;2023-03-16T15:52:05;13.40;99.90
7574;DHT22;3828;48.922;9.116;2023-03-16T15:54:33;13.40;99.90
7574;DHT22;3828;48.922;9.116;2023-03-16T15:57:02;13.20;99.90
7574;DHT22;3828;48.922;9.116;2023-03-16T15:59:33;13.00;99.90
7574;DHT22;3828;48.922;9.116;2023-03-16T16:06:56;14.00;99.90
7574;DHT22;3828;48.922;9.116;2023-03-16T16:14:23;12.40;99.90
7574;DHT22;3828;48.922;9.116;2023-03-16T16:16:51;12.30;99.90
7574;DHT22;3828;48.922;9.116;2023-03-16T16:26:44;12.10;99.90
7574;DHT22;3828;48.922;9.116;2023-03-16T16:29:14;12.10;99.90
7574;DHT22;3828;48.922;9.116;2023-03-16T16:31:43;12.00;99.90
7574;DHT22;3828;48.922;9.116;2023-03-16T16:34:11;11.90;99.90
7574;DHT22;3828;48.922;9.116;2023-03-16T16:41:33;11.70;99.90
7574;DHT22;3828;48.922;9.116;2023-03-16T16:44:02;11.60;99.90
7574;DHT22;3828;48.922;9.116;2023-03-16T16:46:36;11.50;99.90
7574;DHT22;3828;48.922;9.116;2023-03-16T16:49:10;11.40;99.90
7574;DHT22;3828;48.922;9.116;2023-03-16T16:54:14;11.20;99.90
7574;DHT22;3828;48.922;9.116;2023-03-16T16:59:13;11.10;99.90
7574;DHT22;3828;48.922;9.116;2023-03-16T17:04:14;11.00;99.90
7574;DHT22;3828;48.922;9.116;2023-03-16T17:14:05;10.70;99.90
7574;DHT22;3828;48.922;9.116;2023-03-16T17:16:34;10.70;99.90
7574;DHT22;3828;48.922;9.116;2023-03-16T17:21:32;10.60;99.90
7574;DHT22;3828;48.922;9.116;2023-03-16T17:26:28;10.50;99.90
7574;DHT22;3828;48.922;9.116;2023-03-16T17:28:58;10.40;99.90
7574;DHT22;3828;48.922;9.116;2023-03-16T17:31:26;10.30;99.90
7574;DHT22;3828;48.922;9.116;2023-03-16T17:36:23;10.20;99.90
7574;DHT22;3828;48.922;9.116;2023-03-16T17:38:51;10.20;99.90
7574;DHT22;3828;48.922;9.116;2023-03-16T17:41:21;10.10;99.90
7574;DHT22;3828;48.922;9.116;2023-03-16T17:46:17;10.10;99.90
7574;DHT22;3828;48.922;9.116;2023-03-16T17:51:13;11.00;99.90
7574;DHT22;3828;48.922;9.116;2023-03-16T17:56:15;9.90;99.90
7574;DHT22;3828;48.922;9.116;2023-03-16T17:58:44;9.90;99.90
7574;DHT22;3828;48.922;9.116;2023-03-16T18:06:14;9.60;99.90
7574;DHT22;3828;48.922;9.116;2023-03-16T18:11:15;9.60;99.90
7574;DHT22;3828;48.922;9.116;2023-03-16T18:16:15;9.40;99.90
7574;DHT22;3828;48.922;9.116;2023-03-16T18:21:17;9.40;99.90
7574;DHT22;3828;48.922;9.116;2023-03-16T18:28:39;9.30;99.90
7574;DHT22;3828;48.922;9.116;2023-03-16T18:31:16;9.30;99.90
7574;DHT22;3828;48.922;9.116;2023-03-16T18:33:45;9.20;99.90
7574;DHT22;3828;48.922;9.116;2023-03-16T18:36:16;9.20;99.90
7574;DHT22;3828;48.922;9.116;2023-03-16T18:38:46;9.20;99.90
7574;DHT22;3828;48.922;9.116;2023-03-16T18:41:16;9.10;99.90
7574;DHT22;3828;48.922;9.116;2023-03-16T18:43:45;9.10;99.90
7574;DHT22;3828;48.922;9.116;2023-03-16T18:46:20;8.90;99.90
7574;DHT22;3828;48.922;9.116;2023-03-16T18:48:49;8.90;99.90
7574;DHT22;3828;48.922;9.116;2023-03-16T18:56:17;8.90;99.90
7574;DHT22;3828;48.922;9.116;2023-03-16T18:58:47;8.90;99.90
7574;DHT22;3828;48.922;9.116;2023-03-16T19:01:21;8.90;99.90
7574;DHT22;3828;48.922;9.116;2023-03-16T19:03:49;8.90;99.90
7574;DHT22;3828;48.922;9.116;2023-03-16T19:06:20;8.80;99.90
7574;DHT22;3828;48.922;9.116;2023-03-16T19:16:15;8.70;99.90
7574;DHT22;3828;48.922;9.116;2023-03-16T19:21:12;8.60;99.90
7574;DHT22;3828;48.922;9.116;2023-03-16T19:28:36;8.60;99.90
7574;DHT22;3828;48.922;9.116;2023-03-16T19:31:09;8.50;99.90
7574;DHT22;3828;48.922;9.116;2023-03-16T19:33:40;8.50;99.90
7574;DHT22;3828;48.922;9.116;2023-03-16T19:36:14;8.40;99.90
7574;DHT22;3828;48.922;9.116;2023-03-16T19:41:21;8.40;99.90
7574;DHT22;3828;48.922;9.116;2023-03-16T19:48:44;8.30;99.90
7574;DHT22;3828;48.922;9.116;2023-03-16T19:51:13;8.30;99.90
7574;DHT22;3828;48.922;9.116;2023-03-16T19:53:41;7.50;99.90
7574;DHT22;3828;48.922;9.116;2023-03-16T19:56:12;8.20;99.90
7574;DHT22;3828;48.922;9.116;2023-03-16T19:58:40;8.20;99.90
7574;DHT22;3828;48.922;9.116;2023-03-16T20:01:14;8.20;99.90
7574;DHT22;3828;48.922;9.116;2023-03-16T20:03:44;8.10;99.90
7574;DHT22;3828;48.922;9.116;2023-03-16T20:06:13;8.10;99.90
7574;DHT22;3828;48.922;9.116;2023-03-16T20:08:40;7.90;99.90
7574;DHT22;3828;48.922;9.116;2023-03-16T20:11:13;8.00;99.90
7574;DHT22;3828;48.922;9.116;2023-03-16T20:16:14;7.90;99.90
7574;DHT22;3828;48.922;9.116;2023-03-16T20:21:13;7.70;99.90
7574;DHT22;3828;48.922;9.116;2023-03-16T20:26:14;7.70;99.90
7574;DHT22;3828;48.922;9.116;2023-03-16T20:31:18;7.70;99.90
7574;DHT22;3828;48.922;9.116;2023-03-16T20:36:14;7.70;99.90
7574;DHT22;3828;48.922;9.116;2023-03-16T20:41:13;7.70;99.90
7574;DHT22;3828;48.922;9.116;2023-03-16T20:46:14;7.60;99.90
7574;DHT22;3828;48.922;9.116;2023-03-16T20:51:13;7.50;99.90
7574;DHT22;3828;48.922;9.116;2023-03-16T20:53:42;7.50;99.90
7574;DHT22;3828;48.922;9.116;2023-03-16T20:56:14;7.50;99.90
7574;DHT22;3828;48.922;9.116;2023-03-16T21:01:10;7.40;99.90
7574;DHT22;3828;48.922;9.116;2023-03-16T21:06:17;7.20;99.90
7574;DHT22;3828;48.922;9.116;2023-03-16T21:11:20;7.10;99.90
7574;DHT22;3828;48.922;9.116;2023-03-16T21:21:13;7.10;99.90
7574;DHT22;3828;48.922;9.116;2023-03-16T21:26:13;7.10;99.90
7574;DHT22;3828;48.922;9.116;2023-03-16T21:31:14;7.10;99.90
7574;DHT22;3828;48.922;9.116;2023-03-16T21:36:14;7.20;99.90
7574;DHT22;3828;48.922;9.116;2023-03-16T21:46:05;7.00;99.90
7574;DHT22;3828;48.922;9.116;2023-03-16T21:48:35;6.90;99.90